createdAt,value
2023-03-03T00:03:00.900Z,100710.77
2023-03-03T00:05:47.891Z,100709.77
2023-03-03T00:08:34.773Z,100707.48
2023-03-03T00:11:21.673Z,100705.56
2023-03-03T00:14:25.672Z,100700.46
2023-03-03T00:17:24.301Z,100696.61
2023-03-03T00:20:40.961Z,100702.23
2023-03-03T00:23:27.410Z,100703.31
2023-03-03T00:26:29.519Z,100695.13
2023-03-03T00:29:37.194Z,100682.91
2023-03-03T00:32:25.533Z,100681.27
2023-03-03T00:35:25.063Z,100678.44
2023-03-03T00:38:18.360Z,100675.09
2023-03-03T00:41:16.362Z,100663.59
2023-03-03T00:44:31.972Z,100665.28
2023-03-03T00:47:31.399Z,100656.48
2023-03-03T00:50:32.549Z,100654.05
2023-03-03T00:53:23.427Z,100649.45
2023-03-03T00:56:10.552Z,100649.88
2023-03-03T00:58:57.263Z,100644.66
2023-03-03T01:01:55.494Z,100648.14
2023-03-03T01:04:48.970Z,100643.71
2023-03-03T01:07:36.217Z,100637.39
2023-03-03T01:10:23.305Z,100640.70
2023-03-03T01:13:13.199Z,100632.67
2023-03-03T01:16:02.137Z,100630.73
2023-03-03T01:18:48.880Z,100626.71
2023-03-03T01:21:36.216Z,100621.38
2023-03-03T01:24:23.284Z,100613.59
2023-03-03T01:27:09.938Z,100611.49
2023-03-03T01:29:57.293Z,100607.52
2023-03-03T01:32:44.554Z,100600.81
2023-03-03T01:35:31.127Z,100600.30
2023-03-03T01:38:17.960Z,100598.05
2023-03-03T01:41:05.323Z,100595.66
2023-03-03T01:45:50.305Z,100590.89
2023-03-03T01:48:42.879Z,100579.65
2023-03-03T01:51:34.048Z,100580.27
2023-03-03T01:54:39.993Z,100582.09
2023-03-03T01:57:39.680Z,100583.19
2023-03-03T02:00:29.745Z,100582.48
2023-03-03T02:03:17.978Z,100586.54
2023-03-03T02:06:11.676Z,100584.84
2023-03-03T02:09:21.514Z,100581.54
2023-03-03T02:12:11.537Z,100579.07
2023-03-03T02:14:58.370Z,100580.13
2023-03-03T02:17:47.169Z,100579.61
2023-03-03T02:20:55.645Z,100580.45
2023-03-03T02:23:53.361Z,100583.61
2023-03-03T02:26:41.594Z,100581.25
2023-03-03T02:29:28.311Z,100579.56
2023-03-03T02:32:15.314Z,100578.17
2023-03-03T02:35:03.842Z,100579.48
2023-03-03T02:37:51.631Z,100575.48
2023-03-03T02:40:44.945Z,100577.27
2023-03-03T02:43:57.458Z,100581.66
2023-03-03T02:46:47.638Z,100575.27
2023-03-03T02:49:36.428Z,100573.02
2023-03-03T02:52:22.925Z,100568.56
2023-03-03T02:55:37.099Z,100571.52
2023-03-03T02:58:24.000Z,100565.41
2023-03-03T03:01:11.407Z,100562.77
2023-03-03T03:04:00.908Z,100563.36
2023-03-03T03:06:47.901Z,100561.50
2023-03-03T03:09:34.386Z,100557.52
2023-03-03T03:12:27.548Z,100553.13
2023-03-03T03:15:16.024Z,100553.79
2023-03-03T03:18:02.966Z,100549.35
2023-03-03T03:20:49.824Z,100552.70
2023-03-03T03:23:36.952Z,100555.67
2023-03-03T03:26:28.957Z,100557.56
2023-03-03T03:29:15.654Z,100557.52
2023-03-03T03:32:02.347Z,100555.69
2023-03-03T03:34:50.022Z,100560.96
2023-03-03T03:37:36.708Z,100554.89
2023-03-03T03:40:26.871Z,100552.59
2023-03-03T03:43:13.310Z,100555.04
2023-03-03T03:46:00.290Z,100557.20
2023-03-03T03:48:47.004Z,100558.96
2023-03-03T03:51:41.390Z,100552.92
2023-03-03T03:54:28.787Z,100550.38
2023-03-03T03:57:15.343Z,100545.33
2023-03-03T04:00:03.064Z,100533.17
2023-03-03T04:02:55.669Z,100532.12
2023-03-03T04:05:43.170Z,100533.33
2023-03-03T04:08:29.546Z,100533.29
2023-03-03T04:11:17.125Z,100528.88
2023-03-03T04:14:30.291Z,100528.73
2023-03-03T04:17:22.410Z,100529.67
2023-03-03T04:20:12.863Z,100527.46
2023-03-03T04:23:00.142Z,100524.61
2023-03-03T04:25:48.733Z,100524.09
2023-03-03T04:28:36.509Z,100518.27
2023-03-03T04:31:23.690Z,100512.41
2023-03-03T04:34:10.693Z,100510.20
2023-03-03T04:36:59.009Z,100507.08
2023-03-03T04:39:45.908Z,100512.52
2023-03-03T04:42:32.846Z,100508.48
2023-03-03T04:45:19.551Z,100507.79
2023-03-03T04:48:06.862Z,100508.45
2023-03-03T04:50:54.967Z,100500.52
2023-03-03T04:53:41.682Z,100490.44
2023-03-03T04:56:33.087Z,100494.10
2023-03-03T04:59:20.171Z,100484.27
2023-03-03T05:02:07.119Z,100490.83
2023-03-03T05:04:54.196Z,100485.31
2023-03-03T05:07:41.058Z,100480.09
2023-03-03T05:10:29.840Z,100472.55
2023-03-03T05:13:19.564Z,100475.70
2023-03-03T05:16:08.589Z,100479.01
2023-03-03T05:19:01.470Z,100486.42
2023-03-03T05:21:49.097Z,100488.20
2023-03-03T05:24:36.476Z,100489.08
2023-03-03T05:27:24.072Z,100483.66
2023-03-03T05:30:12.306Z,100477.47
2023-03-03T05:33:00.104Z,100469.86
2023-03-03T05:43:11.137Z,100475.14
2023-03-03T05:47:13.919Z,100479.92
2023-03-03T05:50:02.313Z,100477.27
2023-03-03T05:52:53.125Z,100478.95
2023-03-03T05:55:40.218Z,100476.55
2023-03-03T05:58:28.424Z,100473.98
2023-03-03T06:01:23.788Z,100470.19
2023-03-03T06:05:05.677Z,100466.70
2023-03-03T06:07:55.233Z,100467.09
2023-03-03T06:11:02.408Z,100463.17
2023-03-03T06:13:50.747Z,100465.27
2023-03-03T06:16:38.000Z,100469.36
2023-03-03T06:19:25.275Z,100474.71
2023-03-03T06:22:12.330Z,100475.28
2023-03-03T06:25:42.147Z,100482.06
2023-03-03T06:29:39.264Z,100484.98
2023-03-03T06:32:29.629Z,100482.97
2023-03-03T06:35:17.671Z,100480.02
2023-03-03T06:38:04.558Z,100483.32
2023-03-03T06:40:51.381Z,100482.98
2023-03-03T06:43:38.860Z,100485.45
2023-03-03T06:46:45.428Z,100485.08
2023-03-03T06:50:13.280Z,100488.11
2023-03-03T06:54:26.923Z,100494.58
2023-03-03T06:57:23.266Z,100483.37
2023-03-03T07:00:25.139Z,100484.33
2023-03-03T07:03:16.247Z,100482.07
2023-03-03T07:06:15.467Z,100487.68
2023-03-03T07:09:01.899Z,100490.75
2023-03-03T07:12:01.459Z,100489.50
2023-03-03T07:14:55.701Z,100489.26
2023-03-03T07:17:50.508Z,100494.08
2023-03-03T07:23:31.107Z,100485.41
2023-03-03T07:27:29.147Z,100479.84
2023-03-03T07:30:28.109Z,100474.05
2023-03-03T07:33:28.079Z,100474.23
2023-03-03T07:36:35.972Z,100483.85
2023-03-03T07:42:08.690Z,100482.98
2023-03-03T07:45:00.230Z,100484.70
2023-03-03T07:47:46.909Z,100492.48
2023-03-03T07:50:35.150Z,100495.45
2023-03-03T07:53:30.069Z,100492.42
2023-03-03T07:56:34.460Z,100494.66
2023-03-03T07:59:26.790Z,100500.00
2023-03-03T08:02:35.042Z,100499.55
2023-03-03T08:17:38.764Z,100511.54
2023-03-03T08:31:41.199Z,100526.39
2023-03-03T08:35:09.931Z,100530.94
2023-03-03T08:38:58.241Z,100530.83
2023-03-03T08:41:47.272Z,100536.26
2023-03-03T08:44:32.533Z,100556.70
2023-03-03T08:47:18.070Z,100558.09
2023-03-03T08:50:07.113Z,100550.94
2023-03-03T09:22:38.086Z,100538.30
2023-03-03T09:36:39.203Z,100511.36
2023-03-03T09:39:39.339Z,100512.34
2023-03-03T09:43:24.249Z,100501.46
2023-03-03T09:46:32.496Z,100503.17
2023-03-03T09:49:36.686Z,100492.99
2023-03-03T09:53:00.810Z,100489.97
2023-03-03T09:56:02.467Z,100497.29
2023-03-03T09:59:09.480Z,100494.36
2023-03-03T10:01:56.238Z,100490.41
2023-03-03T10:04:54.407Z,100490.77
2023-03-03T10:08:16.147Z,100494.23
2023-03-03T10:11:27.553Z,100491.88
2023-03-03T10:14:32.253Z,100498.04
2023-03-03T10:17:45.255Z,100504.80
2023-03-03T10:21:02.691Z,100505.19
2023-03-03T10:24:30.226Z,100507.14
2023-03-03T10:27:43.364Z,100507.77
2023-03-03T10:31:04.039Z,100510.86
2023-03-03T10:33:46.678Z,100512.38
2023-03-03T10:36:33.213Z,100512.81
2023-03-03T10:39:39.771Z,100515.20
2023-03-03T10:42:56.259Z,100518.34
2023-03-03T10:46:01.270Z,100518.39
2023-03-03T10:49:08.730Z,100519.77
2023-03-03T10:52:05.748Z,100517.81
2023-03-03T10:55:20.054Z,100517.27
2023-03-03T10:58:38.015Z,100515.02
2023-03-03T11:01:45.515Z,100512.04
2023-03-03T11:04:47.609Z,100504.92
2023-03-03T11:07:57.743Z,100500.86
2023-03-03T11:11:05.414Z,100506.70
2023-03-03T11:13:56.382Z,100510.17
2023-03-03T11:16:53.210Z,100509.66
2023-03-03T11:19:39.708Z,100509.66
2023-03-03T11:22:49.148Z,100513.59
2023-03-03T11:25:55.889Z,100506.80
2023-03-03T11:29:05.595Z,100509.61
2023-03-03T11:32:22.729Z,100508.50
2023-03-03T11:35:21.334Z,100503.81
2023-03-03T11:38:30.032Z,100501.17
2023-03-03T11:41:39.691Z,100503.73
2023-03-03T11:44:44.251Z,100501.10
2023-03-03T11:47:40.808Z,100494.27
2023-03-03T11:50:42.724Z,100489.62
2023-03-03T11:53:38.994Z,100497.43
2023-03-03T11:56:46.834Z,100496.13
2023-03-03T11:59:42.486Z,100498.05
2023-03-03T12:02:46.163Z,100502.27
2023-03-03T12:05:50.504Z,100502.59
2023-03-03T12:08:42.066Z,100500.10
2023-03-03T12:11:35.616Z,100504.83
2023-03-03T12:14:37.128Z,100507.74
2023-03-03T12:18:04.722Z,100501.50
2023-03-03T12:20:57.854Z,100498.96
2023-03-03T12:23:50.532Z,100496.30
2023-03-03T12:26:59.752Z,100499.98
2023-03-03T12:30:05.001Z,100493.44
2023-03-03T12:32:56.750Z,100498.65
2023-03-03T12:36:14.450Z,100497.56
2023-03-03T12:39:13.563Z,100494.04
2023-03-03T12:42:26.810Z,100495.95
2023-03-03T12:45:30.035Z,100491.36
2023-03-03T12:48:36.610Z,100489.98
2023-03-03T12:51:41.983Z,100493.23
2023-03-03T12:54:57.644Z,100489.39
2023-03-03T12:57:55.614Z,100490.09
2023-03-03T13:00:48.391Z,100489.72
2023-03-03T13:03:58.453Z,100497.23
2023-03-03T13:07:04.602Z,100491.17
2023-03-03T13:10:16.785Z,100482.70
2023-03-03T13:13:16.828Z,100488.70
2023-03-03T13:16:16.783Z,100489.98
2023-03-03T13:19:15.974Z,100486.31
2023-03-03T13:22:16.211Z,100487.80
2023-03-03T13:25:30.664Z,100495.39
2023-03-03T13:28:23.496Z,100487.36
2023-03-03T13:31:11.193Z,100487.17
2023-03-03T13:34:00.799Z,100486.52
2023-03-03T13:37:07.956Z,100479.37
2023-03-03T13:40:50.971Z,100484.00
2023-03-03T13:44:51.197Z,100471.84
2023-03-03T13:48:09.209Z,100465.45
2023-03-03T13:51:02.638Z,100464.80
2023-03-03T13:53:52.366Z,100466.65
2023-03-03T13:59:22.996Z,100462.02
2023-03-03T14:02:48.329Z,100459.08
2023-03-03T14:05:44.418Z,100453.33
2023-03-03T14:08:56.200Z,100454.95
2023-03-03T14:11:48.718Z,100454.95
2023-03-03T14:25:20.896Z,100456.48
2023-03-03T14:28:47.685Z,100455.15
2023-03-03T14:31:42.519Z,100460.43
2023-03-03T14:51:39.486Z,100457.60
2023-03-03T14:58:41.425Z,100447.88
2023-03-03T15:01:38.342Z,100447.43
2023-03-03T15:31:41.680Z,100453.46
2023-03-03T15:34:59.886Z,100452.98
2023-03-03T15:38:43.600Z,100454.39
2023-03-03T15:53:34.768Z,100443.47
2023-03-03T15:56:51.336Z,100443.76
2023-03-03T16:00:05.376Z,100443.46
2023-03-03T16:02:59.153Z,100438.42
2023-03-03T16:06:09.079Z,100437.08
2023-03-03T16:09:16.823Z,100437.75
2023-03-03T16:12:31.608Z,100437.89
2023-03-03T16:16:02.953Z,100440.27
2023-03-03T16:19:04.068Z,100434.31
2023-03-03T16:22:24.710Z,100435.09
2023-03-03T16:26:03.990Z,100440.14
2023-03-03T16:29:03.653Z,100435.55
2023-03-03T16:31:57.771Z,100435.29
2023-03-03T16:35:07.662Z,100430.86
2023-03-03T16:38:05.637Z,100426.48
2023-03-03T16:40:55.063Z,100432.16
2023-03-03T16:44:00.029Z,100429.31
2023-03-03T16:50:10.279Z,100429.56
2023-03-03T16:53:15.413Z,100422.27
2023-03-03T16:57:01.809Z,100422.41
2023-03-03T17:00:05.010Z,100420.27
2023-03-03T17:03:22.445Z,100425.13
2023-03-03T17:06:10.904Z,100423.10
2023-03-03T17:09:48.624Z,100427.91
2023-03-03T17:13:29.660Z,100426.37
2023-03-03T17:16:51.787Z,100424.81
2023-03-03T17:31:48.960Z,100419.25
2023-03-03T17:34:54.957Z,100426.13
2023-03-03T17:38:03.423Z,100433.73
2023-03-03T17:45:38.264Z,100429.07
2023-03-03T17:53:20.988Z,100409.38
2023-03-03T17:57:14.007Z,100408.96
2023-03-03T18:00:19.377Z,100409.29
2023-03-03T18:03:29.853Z,100409.08
2023-03-03T18:06:37.514Z,100414.08
2023-03-03T18:09:43.771Z,100413.10
2023-03-03T18:13:05.345Z,100411.61
2023-03-03T18:16:34.729Z,100411.16
2023-03-03T18:21:05.934Z,100406.97
2023-03-03T18:25:22.110Z,100402.01
2023-03-03T18:29:19.209Z,100402.24
2023-03-03T18:33:01.981Z,100398.45
2023-03-03T19:05:48.352Z,100380.27
2023-03-03T19:08:59.461Z,100377.48
2023-03-03T19:11:54.778Z,100376.92
2023-03-03T19:14:43.811Z,100375.14
2023-03-03T19:20:53.673Z,100366.15
2023-03-03T19:24:04.696Z,100360.02
2023-03-03T19:27:39.649Z,100354.42
2023-03-03T19:32:16.469Z,100348.23
2023-03-03T19:35:30.727Z,100353.89
2023-03-03T19:40:01.444Z,100360.86
2023-03-03T19:43:06.672Z,100363.77
2023-03-03T19:46:24.796Z,100364.80
2023-03-03T19:49:43.470Z,100360.45
2023-03-03T19:54:44.327Z,100343.45
2023-03-03T19:58:01.768Z,100325.30
2023-03-03T20:01:09.081Z,100325.89
2023-03-03T20:04:06.526Z,100316.55
2023-03-03T20:07:42.234Z,100320.08
2023-03-03T20:10:56.460Z,100315.30
2023-03-03T20:17:57.239Z,100311.39
2023-03-03T20:20:46.998Z,100308.36
2023-03-03T20:23:54.236Z,100309.86
2023-03-03T20:26:59.514Z,100297.45
2023-03-03T20:30:07.787Z,100291.04
2023-03-03T20:33:10.972Z,100287.44
2023-03-03T20:36:10.365Z,100283.57
2023-03-03T20:39:08.848Z,100287.17
2023-03-03T20:42:18.730Z,100279.59
2023-03-03T20:45:18.267Z,100276.91
2023-03-03T20:48:12.499Z,100284.02
2023-03-03T20:51:22.988Z,100285.38
2023-03-03T20:54:37.513Z,100284.64
2023-03-03T20:57:42.059Z,100281.77
2023-03-03T21:00:47.901Z,100274.05
2023-03-03T21:03:38.019Z,100271.02
2023-03-03T21:06:39.026Z,100266.05
2023-03-03T21:09:38.353Z,100264.55
2023-03-03T21:12:31.364Z,100258.06
2023-03-03T21:15:36.694Z,100253.11
2023-03-03T21:18:27.045Z,100247.33
2023-03-03T21:21:13.891Z,100242.35
2023-03-03T21:24:01.122Z,100242.98
2023-03-03T21:27:03.387Z,100242.64
2023-03-03T21:30:09.728Z,100236.38
2023-03-03T21:32:56.736Z,100230.37
2023-03-03T21:36:07.160Z,100229.52
2023-03-03T21:38:54.286Z,100221.60
2023-03-03T21:41:56.029Z,100214.73
2023-03-03T21:44:50.275Z,100209.63
2023-03-03T21:47:36.912Z,100204.23
2023-03-03T21:50:23.214Z,100200.45
2023-03-03T21:53:09.881Z,100199.19
2023-03-03T21:55:57.013Z,100190.29
2023-03-03T21:58:45.087Z,100192.79
2023-03-03T22:01:31.440Z,100188.61
2023-03-03T22:04:18.389Z,100186.20
2023-03-03T22:07:05.905Z,100179.92
2023-03-03T22:09:55.788Z,100175.84
2023-03-03T22:12:44.702Z,100174.10
2023-03-03T22:15:34.582Z,100169.48
2023-03-03T22:18:21.676Z,100167.32
2023-03-03T22:21:09.417Z,100169.46
2023-03-03T22:23:56.267Z,100164.94
2023-03-03T22:26:42.912Z,100163.71
2023-03-03T22:29:29.762Z,100152.61
2023-03-03T22:32:16.466Z,100151.38
2023-03-03T22:35:03.855Z,100147.26
2023-03-03T22:37:51.154Z,100141.14
2023-03-03T22:40:37.926Z,100126.97
2023-03-03T22:43:25.807Z,100113.85
2023-03-03T22:46:13.103Z,100109.02
2023-03-03T22:49:00.005Z,100105.53
2023-03-03T22:51:46.595Z,100104.54
2023-03-03T22:54:33.146Z,100102.39
2023-03-03T22:57:20.041Z,100098.40
2023-03-03T23:00:12.817Z,100092.48
2023-03-03T23:02:59.053Z,100078.87
2023-03-03T23:05:45.811Z,100081.58
2023-03-03T23:08:33.183Z,100073.48
2023-03-03T23:11:21.890Z,100069.89
2023-03-03T23:14:08.729Z,100071.20
2023-03-03T23:16:57.104Z,100066.36
2023-03-03T23:19:46.457Z,100066.31
2023-03-03T23:22:33.585Z,100058.39
2023-03-03T23:25:23.203Z,100053.68
2023-03-03T23:28:10.640Z,100048.20
2023-03-03T23:30:57.075Z,100040.87
2023-03-03T23:33:43.873Z,100041.48
2023-03-03T23:36:31.193Z,100044.04
2023-03-03T23:39:18.162Z,100041.04
2023-03-03T23:42:05.153Z,100029.10
2023-03-03T23:44:52.045Z,100024.85
2023-03-03T23:47:38.660Z,100024.16
2023-03-03T23:50:25.397Z,100013.91
2023-03-03T23:53:12.025Z,100012.63
2023-03-03T23:55:58.827Z,100005.08
2023-03-03T23:58:47.127Z,99998.53
